< Typhoon 196407 1964 Season Typhoon 196409 >
Typhoon 196408 (ELSIE)
General InformationTrack Information on Google Maps || Disaster Info.ResourceGoogle EarthGE AnimationAtom FeedGeoJSON
Detalied Best Track (Time Zone = UTC)
Year Month Day Hour Lat. Long. Pressure (hPa) Wind (kt) Class Image Chart
1964 7 14 06 12.1 143.0 1008 0 2 -- Chart
1964 7 14 12 12.5 141.5 1006 0 2 -- Chart
1964 7 14 18 12.9 140.1 1004 0 2 -- Chart
1964 7 15 00 13.5 138.4 1004 0 2 -- Chart
1964 7 15 06 13.5 136.7 1002 0 9 -- Chart
1964 7 15 12 13.2 135.1 1002 0 9 -- Chart
1964 7 15 18 12.9 133.7 1000 0 9 -- Chart
1964 7 16 00 12.9 132.2 1000 0 9 -- Chart
1964 7 16 06 13.4 130.6 1000 0 9 -- Chart
1964 7 16 12 13.8 128.9 1000 0 9 -- Chart
1964 7 16 18 14.0 127.2 1000 0 9 -- Chart
1964 7 17 00 14.3 125.5 1000 0 9 -- Chart
1964 7 17 06 14.7 124.0 1000 0 9 -- Chart
1964 7 17 12 14.9 122.4 1000 0 9 -- Chart
1964 7 17 18 15.5 121.0 1002 0 9 -- Chart
1964 7 18 00 16.0 120.0 1004 0 9 -- Chart
1964 7 18 06 16.5 119.5 1004 0 9 -- Chart
1964 7 18 12 17.2 118.8 1004 0 9 -- Chart
1964 7 18 18 18.0 118.0 1004 0 9 -- Chart
1964 7 19 00 19.0 117.0 1006 0 2 -- Chart
1964 7 19 06 19.1 116.0 1006 0 2 -- Chart
1964 7 19 12 19.0 115.0 1005 0 2 -- Chart
Japan Meteorological Agency Best Track Data | Correction Date : 1989-06-01
< Typhoon 196407 1964 Season Typhoon 196409 >

Help